Time;durP1;ratioP1;P1;durP2;ratioP2;P2;SDS_P1;SDS_P2;PMS_P1;PMS_P2;Temp;Humidity;BMP_temperature;BMP_pressure;BME280_temperature;BME280_humidity;BME280_pressure;Samples;Min_cycle;Max_cycle;Signal;HPM_P1;HPM_P2
2023/08/12 00:00:41;;;;;;;10.45;4.22;;;;;;;24.20;49.08;100871.66;4880474;29;20085;-68
2023/08/12 00:03:12;;;;;;;11.95;4.55;;;;;;;24.19;49.10;100876.25;4880371;29;20447;-68
2023/08/12 00:05:42;;;;;;;12.00;4.47;;;;;;;24.18;49.25;100876.41;4880196;29;20093;-69
2023/08/12 00:08:10;;;;;;;8.88;3.70;;;;;;;24.17;49.05;100880.16;4880108;29;20045;-68
2023/08/12 00:10:38;;;;;;;10.05;4.22;;;;;;;24.15;49.13;100869.44;4880449;29;20053;-68
2023/08/12 00:13:10;;;;;;;10.32;4.18;;;;;;;24.14;49.37;100867.72;4880278;29;20097;-69
2023/08/12 00:15:40;;;;;;;9.65;4.10;;;;;;;24.14;49.12;100872.31;4880147;29;20049;-69
2023/08/12 00:18:09;;;;;;;10.55;4.15;;;;;;;24.13;49.28;100865.19;4880226;29;20093;-69
2023/08/12 00:20:37;;;;;;;12.93;4.00;;;;;;;24.11;49.48;100873.50;4879865;29;20132;-68
2023/08/12 00:23:06;;;;;;;8.85;4.13;;;;;;;24.09;49.39;100867.34;4880137;29;20136;-69
2023/08/12 00:25:34;;;;;;;12.43;4.18;;;;;;;24.08;49.57;100864.81;4879985;29;20053;-69
2023/08/12 00:28:02;;;;;;;10.55;4.10;;;;;;;24.07;49.45;100866.69;4879913;29;20057;-69
2023/08/12 00:30:30;;;;;;;8.20;3.80;;;;;;;24.07;49.30;100871.28;4879784;29;20430;-69
2023/08/12 00:33:00;;;;;;;10.02;4.25;;;;;;;24.05;49.61;100867.88;4880201;29;20057;-69
2023/08/12 00:35:28;;;;;;;11.90;4.32;;;;;;;24.05;49.59;100873.31;4879856;29;20053;-69
2023/08/12 00:37:56;;;;;;;9.75;3.72;;;;;;;24.02;49.60;100866.31;4879724;29;20104;-69
2023/08/12 00:40:28;;;;;;;10.65;3.85;;;;;;;24.02;49.53;100870.91;4879734;29;20049;-69
2023/08/12 00:42:56;;;;;;;10.20;4.35;;;;;;;24.01;49.61;100871.91;4879573;29;20060;-69
2023/08/12 00:45:25;;;;;;;7.88;3.75;;;;;;;23.99;49.78;100870.22;4879524;29;20044;-69
2023/08/12 00:47:53;;;;;;;10.38;4.18;;;;;;;23.98;49.88;100863.06;4879499;29;20089;-69
2023/08/12 00:50:23;;;;;;;8.73;3.95;;;;;;;23.95;49.68;100866.13;4879681;29;20049;-69
2023/08/12 00:52:52;;;;;;;9.98;3.88;;;;;;;23.96;49.74;100866.97;4879355;29;20143;-69
2023/08/12 00:55:22;;;;;;;9.00;3.33;;;;;;;23.94;50.00;100864.41;4879513;29;20053;-69
2023/08/12 00:57:50;;;;;;;11.15;3.70;;;;;;;23.92;49.92;100863.72;4879393;29;20490;-69
2023/08/12 01:00:20;;;;;;;9.93;3.72;;;;;;;23.91;49.87;100864.72;4879305;29;20088;-69
2023/08/12 01:02:50;;;;;;;9.35;3.80;;;;;;;23.89;49.90;100864.03;4879359;29;20053;-68
2023/08/12 01:05:20;;;;;;;8.68;3.42;;;;;;;23.88;50.07;100865.06;4879243;29;20052;-69
2023/08/12 01:07:50;;;;;;;14.15;4.13;;;;;;;23.87;49.90;100866.09;4879312;29;20064;-69
2023/08/12 01:10:18;;;;;;;8.18;3.83;;;;;;;23.86;50.02;100872.56;4878983;29;20053;-69
2023/08/12 01:12:54;;;;;;;9.88;3.90;;;;;;;23.86;50.04;100872.56;4879010;29;20049;-67
2023/08/12 01:15:23;;;;;;;6.57;3.33;;;;;;;23.85;50.09;100872.72;4879148;29;20080;-69
2023/08/12 01:17:55;;;;;;;7.13;3.83;;;;;;;23.84;50.21;100871.03;4879238;29;20065;-69
2023/08/12 01:20:26;;;;;;;10.30;3.83;;;;;;;23.83;50.18;100878.31;4879064;29;20060;-68
2023/08/12 01:22:58;;;;;;;8.73;3.95;;;;;;;23.83;50.08;100872.00;4879014;29;20053;-69
2023/08/12 01:25:27;;;;;;;9.40;3.67;;;;;;;23.80;50.25;100870.47;4878302;29;20049;-68
2023/08/12 01:27:56;;;;;;;8.20;3.60;;;;;;;23.80;50.09;100878.63;4878924;29;20185;-69
2023/08/12 01:30:24;;;;;;;7.97;3.92;;;;;;;23.80;49.96;100880.50;4860135;29;20495;-68
2023/08/12 01:32:58;;;;;;;6.65;3.08;;;;;;;23.77;50.14;100872.69;4860151;29;20483;-68
2023/08/12 01:35:33;;;;;;;9.43;3.72;;;;;;;23.76;50.23;100880.00;4859945;29;20488;-68
2023/08/12 01:38:04;;;;;;;7.22;3.40;;;;;;;23.76;50.24;100876.41;4859956;29;20052;-68
2023/08/12 01:40:36;;;;;;;5.72;3.10;;;;;;;23.74;50.08;100879.31;4860057;29;20523;-68
2023/08/12 01:43:05;;;;;;;7.35;3.20;;;;;;;23.73;50.14;100876.72;4860025;29;20121;-68
2023/08/12 01:45:34;;;;;;;8.63;3.63;;;;;;;23.70;50.30;100876.03;4860038;29;20057;-68
2023/08/12 01:48:02;;;;;;;7.47;3.65;;;;;;;23.70;50.33;100878.75;4859984;29;20045;-68
2023/08/12 01:50:31;;;;;;;7.53;3.58;;;;;;;23.70;50.41;100875.19;4859721;29;20054;-68
2023/08/12 01:52:59;;;;;;;7.15;2.83;;;;;;;23.69;50.19;100870.75;4859662;29;20057;-68
2023/08/12 01:55:27;;;;;;;6.45;3.33;;;;;;;23.67;50.48;100865.47;4859721;29;20498;-68
2023/08/12 01:57:56;;;;;;;6.38;3.33;;;;;;;23.65;50.29;100866.66;4859894;29;20049;-68
2023/08/12 02:00:25;;;;;;;5.45;2.92;;;;;;;23.66;50.18;100871.09;4859768;29;20113;-68
2023/08/12 02:02:53;;;;;;;5.65;3.03;;;;;;;23.64;50.09;100863.09;4859543;29;20074;-68
2023/08/12 02:05:21;;;;;;;6.35;3.17;;;;;;;23.64;50.40;100873.09;4859832;29;20053;-68
2023/08/12 02:07:49;;;;;;;6.00;3.40;;;;;;;23.62;50.56;100867.81;4859757;29;20050;-68
2023/08/12 02:10:17;;;;;;;7.70;3.30;;;;;;;23.61;50.43;100870.72;4859602;29;20053;-68
2023/08/12 02:12:45;;;;;;;6.60;3.25;;;;;;;23.61;50.56;100865.25;4859602;29;20050;-68
2023/08/12 02:15:15;;;;;;;8.15;3.60;;;;;;;23.60;50.62;100863.56;4859516;29;20057;-68
2023/08/12 02:17:43;;;;;;;6.07;2.90;;;;;;;23.59;50.61;100867.31;4859499;29;20054;-68
2023/08/12 02:20:12;;;;;;;6.32;3.28;;;;;;;23.57;50.57;100864.72;4859540;29;20068;-68
2023/08/12 02:22:40;;;;;;;6.60;3.38;;;;;;;23.56;50.76;100867.59;4859604;29;20054;-68
2023/08/12 02:25:09;;;;;;;7.15;3.53;;;;;;;23.56;50.65;100867.59;4859607;29;20042;-68
2023/08/12 02:27:37;;;;;;;6.97;3.35;;;;;;;23.55;50.64;100863.19;4859283;29;20053;-68
2023/08/12 02:30:06;;;;;;;7.32;3.47;;;;;;;23.54;50.79;100861.44;4859258;29;20053;-68
2023/08/12 02:32:36;;;;;;;7.63;3.50;;;;;;;23.53;50.78;100863.31;4859160;29;20114;-68
2023/08/12 02:35:05;;;;;;;5.15;3.13;;;;;;;23.52;50.69;100858.03;4859367;29;20057;-68
2023/08/12 02:37:33;;;;;;;8.65;3.40;;;;;;;23.51;50.83;100861.78;4858327;29;20495;-68
2023/08/12 02:40:04;;;;;;;6.30;3.20;;;;;;;23.50;50.75;100868.22;4859238;29;20045;-68
2023/08/12 02:42:32;;;;;;;6.32;3.25;;;;;;;23.47;50.89;100863.97;4859229;29;20059;-68
2023/08/12 02:45:00;;;;;;;6.00;3.10;;;;;;;23.48;50.72;100856.66;4858927;29;20679;-68
2023/08/12 02:47:30;;;;;;;6.68;2.85;;;;;;;23.47;50.78;100863.13;4859324;29;20045;-68
2023/08/12 02:49:59;;;;;;;7.25;3.33;;;;;;;23.46;50.91;100856.81;4859075;29;20050;-68
2023/08/12 02:52:28;;;;;;;6.60;3.13;;;;;;;23.46;50.78;100861.41;4858953;29;20065;-68
2023/08/12 02:54:56;;;;;;;5.60;3.10;;;;;;;23.43;50.76;100855.25;4859168;29;20419;-68
2023/08/12 02:57:24;;;;;;;5.85;3.00;;;;;;;23.43;50.76;100857.97;4858885;29;20076;-68
2023/08/12 02:59:52;;;;;;;4.40;2.70;;;;;;;23.43;50.94;100862.56;4859092;29;20074;-68
2023/08/12 03:02:20;;;;;;;6.25;3.13;;;;;;;23.41;51.07;100861.88;4859159;29;20057;-68
2023/08/12 03:04:48;;;;;;;5.85;3.30;;;;;;;23.40;50.90;100855.59;4858924;29;20874;-68
2023/08/12 03:07:18;;;;;;;6.25;3.13;;;;;;;23.38;50.90;100852.19;4859042;29;20065;-68
2023/08/12 03:09:46;;;;;;;6.60;3.20;;;;;;;23.38;50.85;100854.91;4859033;29;20432;-67
2023/08/12 03:12:15;;;;;;;8.05;3.30;;;;;;;23.36;50.94;100848.78;4858979;29;20109;-67
2023/08/12 03:14:46;;;;;;;4.88;2.78;;;;;;;23.35;50.95;100851.63;4859194;29;20053;-68
2023/08/12 03:17:14;;;;;;;6.75;3.17;;;;;;;23.35;51.07;100848.91;4858098;29;20060;-68
2023/08/12 03:19:42;;;;;;;6.50;3.10;;;;;;;23.34;51.13;100853.50;4858760;29;20460;-67
2023/08/12 03:22:11;;;;;;;6.28;3.00;;;;;;;23.34;51.00;100856.22;4858870;29;20514;-68
2023/08/12 03:24:41;;;;;;;7.57;3.00;;;;;;;23.32;50.99;100855.53;4858560;29;20053;-69
2023/08/12 03:27:09;;;;;;;5.05;2.85;;;;;;;23.31;51.04;100852.97;4858677;29;20061;-67
2023/08/12 03:29:37;;;;;;;5.13;2.90;;;;;;;23.31;51.44;100859.28;4859002;29;20062;-68
2023/08/12 03:32:06;;;;;;;5.90;2.90;;;;;;;23.30;51.02;100867.59;4858782;29;20061;-68
2023/08/12 03:34:34;;;;;;;6.13;2.90;;;;;;;23.31;51.31;100872.03;4858715;29;20426;-70
2023/08/12 03:37:02;;;;;;;5.10;2.90;;;;;;;23.29;51.25;100872.19;4858717;29;20049;-67
2023/08/12 03:39:30;;;;;;;5.40;3.00;;;;;;;23.27;51.26;100868.78;4858571;29;20188;-68
2023/08/12 03:42:00;;;;;;;6.30;3.20;;;;;;;23.27;51.47;100868.78;4858748;29;20050;-67
2023/08/12 03:44:28;;;;;;;5.38;3.10;;;;;;;23.26;51.08;100872.53;4858831;29;20050;-67
2023/08/12 03:46:56;;;;;;;5.38;3.33;;;;;;;23.26;51.29;100883.41;4858737;29;20085;-67
2023/08/12 03:49:24;;;;;;;6.47;2.83;;;;;;;23.25;51.29;100881.66;4860717;29;20518;-67
2023/08/12 03:51:53;;;;;;;5.30;2.95;;;;;;;23.25;51.29;100887.13;4861557;29;20062;-68
2023/08/12 03:54:21;;;;;;;4.63;2.60;;;;;;;23.23;51.02;100878.25;4862148;29;20128;-68
2023/08/12 03:56:49;;;;;;;5.18;2.75;;;;;;;23.23;51.41;100889.16;4862115;29;20197;-67
2023/08/12 03:59:18;;;;;;;5.75;3.03;;;;;;;23.22;51.44;100881.16;4862030;29;20388;-67
2023/08/12 04:01:47;;;;;;;6.80;3.17;;;;;;;23.22;51.35;100882.00;4861908;29;20084;-67
2023/08/12 04:04:15;;;;;;;5.32;2.78;;;;;;;23.21;51.49;100884.88;4861917;29;20085;-68
2023/08/12 04:06:43;;;;;;;5.22;2.90;;;;;;;23.20;51.38;100885.91;4861839;29;20064;-68
2023/08/12 04:09:11;;;;;;;5.03;2.92;;;;;;;23.18;51.45;100891.50;4862166;29;20053;-68
2023/08/12 04:11:41;;;;;;;5.68;2.75;;;;;;;23.18;51.52;100894.22;4861532;29;20510;-68
2023/08/12 04:14:09;;;;;;;4.93;2.75;;;;;;;23.17;51.32;100895.25;4861617;29;20136;-67
2023/08/12 04:16:39;;;;;;;4.85;2.95;;;;;;;23.16;51.54;100893.50;4861620;29;20060;-68
2023/08/12 04:19:07;;;;;;;5.85;2.80;;;;;;;23.16;51.49;100896.22;4861327;29;20500;-68
2023/08/12 04:21:36;;;;;;;5.75;2.80;;;;;;;23.16;51.55;100896.22;4861541;29;20140;-67
2023/08/12 04:24:04;;;;;;;5.15;3.00;;;;;;;23.17;51.76;100897.09;4861515;29;20046;-68
2023/08/12 04:26:33;;;;;;;5.00;2.80;;;;;;;23.16;51.79;100904.38;4861580;29;20053;-68
2023/08/12 04:29:04;;;;;;;5.00;2.90;;;;;;;23.14;51.49;100904.56;4861310;29;20053;-68
2023/08/12 04:31:32;;;;;;;5.20;2.80;;;;;;;23.14;51.62;100907.28;4861166;29;20488;-68
2023/08/12 04:34:01;;;;;;;5.07;2.90;;;;;;;23.13;51.80;100904.72;4861435;29;20132;-68
2023/08/12 04:36:30;;;;;;;4.85;2.75;;;;;;;23.14;51.86;100906.41;4861474;29;20646;-69
2023/08/12 04:38:58;;;;;;;5.03;2.80;;;;;;;23.12;51.92;100908.44;4861252;29;20049;-69
2023/08/12 04:41:26;;;;;;;6.80;3.15;;;;;;;23.13;51.80;100907.44;4861242;29;20076;-69
2023/08/12 04:43:54;;;;;;;5.45;3.10;;;;;;;23.13;51.72;100902.00;4861010;29;20524;-68
2023/08/12 04:46:23;;;;;;;5.70;2.92;;;;;;;23.12;51.52;100908.44;4861050;29;20050;-68
2023/08/12 04:48:51;;;;;;;5.13;2.80;;;;;;;23.11;51.71;100907.59;4861239;29;20049;-68
2023/08/12 04:51:20;;;;;;;8.32;3.00;;;;;;;23.11;51.60;100912.19;4860781;29;20049;-68
2023/08/12 04:53:49;;;;;;;4.45;2.72;;;;;;;23.10;51.73;100911.34;4860708;29;20064;-69
2023/08/12 04:56:18;;;;;;;5.95;2.90;;;;;;;23.10;51.72;100913.19;4860914;29;20056;-69
2023/08/12 04:58:46;;;;;;;4.78;2.58;;;;;;;23.10;51.73;100913.19;4860838;29;20057;-68
2023/08/12 05:01:14;;;;;;;4.85;2.85;;;;;;;23.09;51.83;100916.94;4859933;29;20081;-69
2023/08/12 05:03:42;;;;;;;6.70;2.75;;;;;;;23.09;52.06;100908.78;4860866;29;20476;-68
2023/08/12 05:06:10;;;;;;;5.40;2.67;;;;;;;23.09;52.23;100916.94;4860830;29;20145;-68
2023/08/12 05:08:40;;;;;;;6.35;2.95;;;;;;;23.09;52.24;100914.22;4860605;29;20119;-69
2023/08/12 05:11:08;;;;;;;6.20;2.83;;;;;;;23.08;52.25;100912.50;4860340;29;20058;-68
2023/08/12 05:13:36;;;;;;;4.20;2.58;;;;;;;23.10;52.44;100915.94;4860750;29;20086;-69
2023/08/12 05:16:07;;;;;;;4.95;2.55;;;;;;;23.10;52.66;100915.94;4860380;29;20578;-69
2023/08/12 05:18:35;;;;;;;6.05;2.95;;;;;;;23.08;52.52;100907.91;4860549;29;20050;-68
2023/08/12 05:21:03;;;;;;;4.43;2.65;;;;;;;23.10;52.65;100915.94;4860976;29;20523;-69
2023/08/12 05:23:31;;;;;;;5.97;2.95;;;;;;;23.10;52.77;100916.78;4860574;29;20140;-69
2023/08/12 05:26:01;;;;;;;4.97;2.58;;;;;;;23.10;52.83;100916.78;4860183;29;20085;-69
2023/08/12 05:28:29;;;;;;;4.70;2.58;;;;;;;23.09;52.85;100914.22;4860414;29;20483;-69
2023/08/12 05:30:57;;;;;;;3.92;2.85;;;;;;;23.10;52.87;100918.66;4860396;29;20472;-69
2023/08/12 05:33:26;;;;;;;5.07;2.97;;;;;;;23.10;53.00;100919.50;4860391;29;20097;-68
2023/08/12 05:35:54;;;;;;;5.28;2.88;;;;;;;23.10;52.88;100910.47;4860085;29;20045;-68
2023/08/12 05:38:22;;;;;;;4.70;2.70;;;;;;;23.09;52.80;100919.66;4860146;29;20053;-68
2023/08/12 05:40:50;;;;;;;4.75;2.90;;;;;;;23.10;52.73;100921.38;4860106;29;20558;-68
2023/08/12 05:43:20;;;;;;;5.35;2.50;;;;;;;23.11;52.74;100921.19;4860102;29;20050;-68
2023/08/12 05:45:49;;;;;;;5.25;2.72;;;;;;;23.11;52.98;100914.91;4859984;29;20092;-68
2023/08/12 05:48:17;;;;;;;4.93;2.50;;;;;;;23.10;53.10;100916.78;4860040;29;20084;-67
2023/08/12 05:50:45;;;;;;;4.10;2.53;;;;;;;23.11;53.17;100912.19;4859876;29;20417;-67
2023/08/12 05:53:13;;;;;;;3.85;2.50;;;;;;;23.11;53.29;100912.19;4859667;29;20147;-67
2023/08/12 05:55:41;;;;;;;5.07;2.63;;;;;;;23.11;53.35;100917.63;4859655;29;20049;-68
2023/08/12 05:58:10;;;;;;;4.65;2.80;;;;;;;23.10;53.22;100916.78;4859870;29;20472;-67
2023/08/12 06:00:39;;;;;;;4.72;2.50;;;;;;;23.12;53.10;100920.19;4859847;29;20057;-68
2023/08/12 06:03:08;;;;;;;6.40;2.97;;;;;;;23.12;53.44;100909.31;4859740;29;20049;-68
2023/08/12 06:05:36;;;;;;;4.40;2.78;;;;;;;23.11;53.49;100906.75;4859610;29;20083;-68
2023/08/12 06:08:05;;;;;;;5.40;2.80;;;;;;;23.13;53.24;100912.88;4859802;29;20058;-68
2023/08/12 06:10:34;;;;;;;5.65;2.65;;;;;;;23.13;53.57;100915.59;4859688;29;20053;-67
2023/08/12 06:13:05;;;;;;;3.78;2.50;;;;;;;23.09;53.61;100904.19;4859485;29;20062;-67
2023/08/12 06:15:34;;;;;;;4.60;2.70;;;;;;;23.14;53.58;100906.41;4859534;29;20053;-69
2023/08/12 06:18:04;;;;;;;4.30;2.65;;;;;;;23.13;53.69;100908.28;4859438;29;20056;-67
2023/08/12 06:20:32;;;;;;;4.60;2.50;;;;;;;23.15;53.68;100908.13;4859581;29;20450;-67
2023/08/12 06:23:00;;;;;;;4.47;2.40;;;;;;;23.16;53.57;100908.97;4859215;29;20049;-68
2023/08/12 06:25:28;;;;;;;4.18;2.55;;;;;;;23.16;53.80;100912.56;4859371;29;20053;-69
2023/08/12 06:27:58;;;;;;;4.10;2.35;;;;;;;23.15;53.61;100910.84;4859480;29;20136;-68
2023/08/12 06:30:26;;;;;;;4.90;2.55;;;;;;;23.18;53.69;100915.16;4859291;29;20136;-68
2023/08/12 06:32:54;;;;;;;4.35;2.50;;;;;;;23.17;53.69;100911.56;4859046;29;20179;-69
2023/08/12 06:35:24;;;;;;;3.70;2.40;;;;;;;23.18;53.49;100910.56;4859238;29;20426;-69
2023/08/12 06:37:52;;;;;;;4.18;2.58;;;;;;;23.19;53.70;100908.69;4859320;29;20136;-68
2023/08/12 06:40:20;;;;;;;6.35;2.50;;;;;;;23.20;53.36;100904.94;4859149;29;20404;-67
2023/08/12 06:42:49;;;;;;;6.97;2.80;;;;;;;23.21;53.59;100907.50;4859201;29;20118;-68
2023/08/12 06:45:17;;;;;;;4.15;2.25;;;;;;;23.20;53.71;100908.53;4859181;29;20144;-68
2023/08/12 06:47:45;;;;;;;3.70;2.20;;;;;;;23.21;53.66;100895.75;4859168;29;20051;-68
2023/08/12 06:50:14;;;;;;;3.80;2.42;;;;;;;23.23;53.65;100899.19;4859231;29;20057;-68
2023/08/12 06:52:43;;;;;;;4.60;2.63;;;;;;;23.23;53.55;100894.59;4858909;29;20141;-68
2023/08/12 06:55:11;;;;;;;4.40;2.63;;;;;;;23.23;53.50;100899.19;4859077;29;20049;-67
2023/08/12 06:57:40;;;;;;;4.90;2.50;;;;;;;23.24;53.67;100903.59;4858988;29;20081;-67
2023/08/12 07:00:09;;;;;;;5.30;2.35;;;;;;;23.24;53.51;100901.72;4858998;29;20434;-67
2023/08/12 07:02:37;;;;;;;4.15;2.58;;;;;;;23.24;53.50;100901.72;4859241;29;20053;-67
2023/08/12 07:05:06;;;;;;;3.60;2.25;;;;;;;23.26;53.47;100907.00;4859276;29;20067;-68
2023/08/12 07:07:37;;;;;;;4.72;2.40;;;;;;;23.26;53.70;100905.19;4858837;29;20530;-67
2023/08/12 07:10:07;;;;;;;4.70;2.50;;;;;;;23.27;53.80;100912.31;4859027;29;20061;-67
2023/08/12 07:12:36;;;;;;;4.20;2.40;;;;;;;23.27;53.70;100906.88;4858775;29;20085;-67
2023/08/12 07:15:04;;;;;;;5.03;2.67;;;;;;;23.29;53.69;100902.13;4858953;29;20060;-67
2023/08/12 07:17:33;;;;;;;4.78;2.60;;;;;;;23.27;53.89;100901.44;4859024;29;20054;-69
2023/08/12 07:20:01;;;;;;;4.30;2.63;;;;;;;23.30;54.03;100903.84;4858973;29;20057;-68
2023/08/12 07:22:29;;;;;;;4.63;2.50;;;;;;;23.30;54.16;100900.25;4859059;29;20057;-68
2023/08/12 07:24:59;;;;;;;4.80;2.60;;;;;;;23.30;54.03;100894.81;4861973;29;20128;-67
2023/08/12 07:27:29;;;;;;;3.97;2.38;;;;;;;23.30;53.96;100901.13;4862592;29;20205;-68
2023/08/12 07:29:57;;;;;;;4.25;2.30;;;;;;;23.31;53.92;100905.53;4862437;29;20049;-67
2023/08/12 07:32:26;;;;;;;3.53;2.22;;;;;;;23.33;53.82;100905.38;4862214;29;20085;-68
2023/08/12 07:34:54;;;;;;;4.70;2.60;;;;;;;23.33;54.04;100902.66;4862357;29;20046;-69
2023/08/12 07:37:22;;;;;;;4.57;2.42;;;;;;;23.34;54.23;100905.22;4862275;29;20114;-69
2023/08/12 07:39:50;;;;;;;4.82;2.65;;;;;;;23.35;54.46;100908.78;4862233;29;20512;-69
2023/08/12 07:42:18;;;;;;;3.95;2.70;;;;;;;23.37;54.61;100904.06;4862377;29;20081;-69
2023/08/12 07:44:48;;;;;;;5.47;2.40;;;;;;;23.38;54.61;100903.91;4862324;29;20114;-67
2023/08/12 07:47:16;;;;;;;4.53;2.40;;;;;;;23.39;54.68;100905.59;4862153;29;20508;-65
2023/08/12 07:49:44;;;;;;;4.20;2.50;;;;;;;23.39;54.68;100908.31;4861993;29;20046;-68
2023/08/12 07:52:13;;;;;;;4.45;2.50;;;;;;;23.40;54.63;100899.13;4861676;29;20061;-66
2023/08/12 07:54:41;;;;;;;4.65;2.95;;;;;;;23.42;54.88;100894.38;4862155;29;20053;-67
2023/08/12 07:57:11;;;;;;;4.80;2.90;;;;;;;23.43;55.02;100890.66;4861877;29;20165;-66
2023/08/12 07:59:40;;;;;;;4.65;2.50;;;;;;;23.45;55.04;100897.78;4861866;29;20065;-68
2023/08/12 08:02:09;;;;;;;5.90;3.05;;;;;;;23.43;55.14;100890.66;4861663;29;20057;-66
2023/08/12 08:04:38;;;;;;;4.60;2.53;;;;;;;23.46;55.09;100894.94;4861532;29;20179;-66
2023/08/12 08:07:06;;;;;;;5.03;2.90;;;;;;;23.48;55.21;100897.50;4861841;29;20109;-67
2023/08/12 08:09:37;;;;;;;5.55;2.75;;;;;;;23.49;55.30;100893.75;4861533;29;20472;-66
2023/08/12 08:12:07;;;;;;;5.70;2.33;;;;;;;23.50;55.42;100895.47;4861774;29;20149;-67
2023/08/12 08:14:35;;;;;;;4.65;2.50;;;;;;;23.51;55.40;100887.13;4861416;29;20053;-67
2023/08/12 08:17:04;;;;;;;3.70;2.25;;;;;;;23.53;55.39;100889.69;4861422;29;20109;-68
2023/08/12 08:19:37;;;;;;;7.13;2.65;;;;;;;23.55;55.14;100891.25;4861525;29;20053;-68
2023/08/12 08:22:05;;;;;;;4.28;2.60;;;;;;;23.55;55.44;100887.69;4861338;29;20491;-68
2023/08/12 08:24:33;;;;;;;6.13;2.70;;;;;;;23.57;55.58;100891.94;4861492;29;20050;-67
2023/08/12 08:27:04;;;;;;;6.68;2.53;;;;;;;23.58;55.50;100896.38;4861394;29;20057;-68
2023/08/12 08:29:35;;;;;;;6.82;2.67;;;;;;;23.59;55.73;100887.22;4861353;29;20415;-67
2023/08/12 08:32:03;;;;;;;5.88;2.70;;;;;;;23.61;55.75;100892.50;4861304;29;20513;-68
2023/08/12 08:34:32;;;;;;;4.95;2.47;;;;;;;23.62;55.63;100884.16;4860613;29;20085;-69
2023/08/12 08:37:08;;;;;;;5.72;2.50;;;;;;;23.64;55.76;100889.44;4861108;29;20061;-65
2023/08/12 08:39:37;;;;;;;5.07;2.60;;;;;;;23.65;55.77;100891.19;4861053;29;20101;-71
2023/08/12 08:42:06;;;;;;;5.95;2.53;;;;;;;23.66;55.86;100882.00;4861136;29;20045;-69
2023/08/12 08:44:35;;;;;;;6.28;2.70;;;;;;;23.67;55.99;100886.41;4860762;29;20458;-70
2023/08/12 08:47:04;;;;;;;5.53;2.65;;;;;;;23.68;55.91;100880.81;4859403;29;20056;-70
2023/08/12 08:49:34;;;;;;;8.77;2.75;;;;;;;23.68;55.79;100882.66;4859155;29;20054;-68
2023/08/12 08:52:02;;;;;;;5.60;2.55;;;;;;;23.72;55.89;100889.50;4859910;29;20057;-69
2023/08/12 08:54:32;;;;;;;7.78;2.42;;;;;;;23.74;55.84;100886.59;4860784;29;20452;-68
2023/08/12 08:57:00;;;;;;;7.85;3.35;;;;;;;23.74;56.03;100884.75;4859456;29;20438;-68
2023/08/12 08:59:43;;;;;;;7.63;2.92;;;;;;;23.75;56.05;100889.19;4860832;29;20050;-70
2023/08/12 09:02:17;;;;;;;7.75;2.90;;;;;;;23.77;55.95;100887.16;4860789;29;20109;-69
2023/08/12 09:04:50;;;;;;;8.48;3.10;;;;;;;23.79;55.95;100886.97;4860437;29;20517;-70
2023/08/12 09:07:19;;;;;;;6.97;3.20;;;;;;;23.80;56.18;100888.69;4860664;29;20053;-69
2023/08/12 09:09:53;;;;;;;5.43;2.65;;;;;;;23.79;56.07;100878.81;4860440;29;20049;-69
2023/08/12 09:12:22;;;;;;;6.40;2.60;;;;;;;23.82;56.18;100879.31;4860705;29;20469;-69
2023/08/12 09:14:50;;;;;;;6.28;2.80;;;;;;;23.83;56.39;100878.31;4860254;29;20053;-70
2023/08/12 09:17:18;;;;;;;4.65;2.28;;;;;;;23.84;56.21;100874.59;4860606;29;20068;-69
2023/08/12 09:19:47;;;;;;;5.93;2.60;;;;;;;23.87;56.27;100879.72;4860271;29;20053;-69
2023/08/12 09:22:15;;;;;;;7.80;2.83;;;;;;;23.88;56.30;100877.84;4860185;29;20046;-69
2023/08/12 09:24:44;;;;;;;7.53;2.72;;;;;;;23.89;56.47;100879.53;4860615;29;20054;-69
2023/08/12 09:27:18;;;;;;;8.00;2.80;;;;;;;23.91;56.37;100875.63;4860476;29;20054;-68
2023/08/12 09:29:49;;;;;;;5.78;2.80;;;;;;;23.91;56.42;100872.91;4860362;29;20093;-69
2023/08/12 09:32:20;;;;;;;6.38;2.50;;;;;;;23.94;56.39;100874.47;4860276;29;20053;-69
2023/08/12 09:34:48;;;;;;;4.68;2.50;;;;;;;23.96;56.48;100877.88;4859939;29;20063;-68
2023/08/12 09:37:17;;;;;;;8.10;2.85;;;;;;;23.97;56.29;100863.22;4860371;29;20113;-68
2023/08/12 09:39:45;;;;;;;6.80;2.70;;;;;;;23.98;56.56;100865.78;4860073;29;20140;-69
2023/08/12 09:42:16;;;;;;;5.20;2.75;;;;;;;23.99;56.58;100859.31;4860136;29;20063;-68
2023/08/12 09:44:45;;;;;;;5.93;3.05;;;;;;;24.01;56.43;100861.03;4859830;29;20058;-69
2023/08/12 09:47:13;;;;;;;5.97;2.72;;;;;;;24.04;56.36;100858.84;4859401;29;20145;-69
2023/08/12 09:49:42;;;;;;;6.10;2.63;;;;;;;24.05;56.36;100856.97;4859752;29;20056;-69
2023/08/12 09:52:10;;;;;;;6.22;2.70;;;;;;;24.06;56.41;100847.78;4859721;29;20122;-69
2023/08/12 09:54:39;;;;;;;5.97;2.50;;;;;;;24.08;56.52;100845.72;4859473;29;20060;-68
2023/08/12 09:57:12;;;;;;;6.10;2.80;;;;;;;24.09;56.30;100841.97;4859869;29;20085;-69
2023/08/12 09:59:42;;;;;;;6.85;3.00;;;;;;;24.10;56.34;100849.97;4859714;29;20057;-69
2023/08/12 10:02:18;;;;;;;6.80;2.88;;;;;;;24.13;56.45;100846.09;4859887;29;20065;-69
2023/08/12 10:04:47;;;;;;;5.93;2.70;;;;;;;24.13;56.41;100837.91;4859907;29;20064;-69
2023/08/12 10:07:15;;;;;;;5.10;2.70;;;;;;;24.16;56.27;100843.88;4859746;29;20053;-68
2023/08/12 10:09:46;;;;;;;5.10;2.60;;;;;;;24.18;56.27;100833.66;4860038;29;20091;-69
2023/08/12 10:12:15;;;;;;;4.90;2.70;;;;;;;24.20;56.25;100838.94;4859371;29;20148;-69
2023/08/12 10:14:48;;;;;;;5.10;2.80;;;;;;;24.20;56.07;100828.88;4859765;29;20057;-69
2023/08/12 10:17:17;;;;;;;3.95;2.60;;;;;;;24.24;56.16;100834.88;4859488;29;20257;-69
2023/08/12 10:20:08;;;;;;;6.97;2.38;;;;;;;24.26;56.13;100832.84;4859585;29;20053;-69
2023/08/12 10:22:38;;;;;;;5.40;2.60;;;;;;;24.28;56.26;100828.06;4859264;29;20145;-69
2023/08/12 10:25:09;;;;;;;4.13;2.55;;;;;;;24.31;56.06;100830.47;4859509;29;20068;-69
2023/08/12 10:27:38;;;;;;;4.90;2.80;;;;;;;24.33;56.02;100822.16;4859493;29;20049;-69
2023/08/12 10:30:09;;;;;;;5.95;2.90;;;;;;;24.35;56.00;100829.13;4859295;29;20053;-69
2023/08/12 10:32:38;;;;;;;5.80;3.00;;;;;;;24.38;55.67;100826.06;4859313;29;20056;-68
2023/08/12 10:35:08;;;;;;;4.70;2.58;;;;;;;24.37;55.67;100818.91;4859695;29;20057;-69
2023/08/12 10:37:36;;;;;;;5.70;2.70;;;;;;;24.41;55.61;100809.38;4859595;29;20052;-70
2023/08/12 10:40:07;;;;;;;6.95;2.50;;;;;;;24.43;55.61;100812.78;4861201;29;20053;-69
2023/08/12 10:42:43;;;;;;;4.50;2.53;;;;;;;24.46;55.57;100804.28;4859406;29;20258;-68
2023/08/12 10:45:15;;;;;;;4.72;2.38;;;;;;;24.49;55.72;100806.66;4859505;29;20417;-69
2023/08/12 10:47:48;;;;;;;5.18;2.30;;;;;;;24.50;55.44;100802.91;4859070;29;20053;-68
2023/08/12 10:50:22;;;;;;;5.15;2.50;;;;;;;24.52;55.54;100798.16;4859560;29;20053;-69
2023/08/12 10:52:54;;;;;;;5.65;2.72;;;;;;;24.58;55.50;100795.75;4863256;29;20167;-69
2023/08/12 10:55:23;;;;;;;4.97;2.50;;;;;;;24.59;55.35;100795.56;4860406;29;20125;-71
2023/08/12 10:57:53;;;;;;;3.92;2.60;;;;;;;24.60;55.12;100788.25;4868429;29;20053;-70
2023/08/12 11:00:27;;;;;;;4.90;2.20;;;;;;;24.63;55.34;100791.50;4872340;29;20140;-70
2023/08/12 11:02:57;;;;;;;5.47;2.50;;;;;;;24.66;54.99;100795.75;4872253;29;20078;-70
2023/08/12 11:05:36;;;;;;;5.65;2.53;;;;;;;24.69;55.03;100788.06;4872131;29;20051;-70
2023/08/12 11:08:06;;;;;;;4.07;2.33;;;;;;;24.73;55.09;100796.78;4871610;29;20053;-70
2023/08/12 11:10:35;;;;;;;5.00;2.25;;;;;;;24.75;54.76;100789.28;4872129;29;20057;-70
2023/08/12 11:13:04;;;;;;;5.18;2.50;;;;;;;24.78;54.93;100786.19;4871516;29;20113;-70
2023/08/12 11:15:36;;;;;;;3.28;2.20;;;;;;;24.82;54.57;100779.41;4871531;29;20102;-70
2023/08/12 11:18:06;;;;;;;3.35;2.20;;;;;;;24.85;54.50;100781.78;4870868;29;20046;-70
2023/08/12 11:20:35;;;;;;;3.75;2.25;;;;;;;24.88;54.63;100770.50;4869221;29;20511;-70
2023/08/12 11:23:10;;;;;;;4.40;2.33;;;;;;;24.91;54.06;100772.91;4867688;29;20093;-70
2023/08/12 11:25:39;;;;;;;3.67;2.28;;;;;;;24.94;54.39;100767.09;4863149;29;20125;-70
2023/08/12 11:28:08;;;;;;;5.22;2.60;;;;;;;24.97;54.16;100766.75;4863026;29;20056;-69
2023/08/12 11:30:42;;;;;;;3.65;2.50;;;;;;;25.00;54.17;100758.22;4863417;29;20051;-70
2023/08/12 11:33:10;;;;;;;4.40;2.53;;;;;;;25.04;53.96;100748.69;4863408;29;20045;-70